Time;durP1;ratioP1;P1;durP2;ratioP2;P2;SDS_P1;SDS_P2;PMS_P1;PMS_P2;Temp;Humidity;BMP_temperature;BMP_pressure;BME280_temperature;BME280_humidity;BME280_pressure;Samples;Min_cycle;Max_cycle;Signal;HPM_P1;HPM_P2
2021/07/11 00:00:11;;;;;;;;;;;;;;;21.10;56.06;101498.41;5113801;28;19924;-71
2021/07/11 00:02:39;;;;;;;;;;;;;;;20.73;58.06;101506.03;5113915;28;19924;-71
2021/07/11 00:05:07;;;;;;;;;;;;;;;20.97;56.11;101493.34;5113397;28;19923;-71
2021/07/11 00:07:34;;;;;;;;;;;;;;;21.31;55.07;101496.50;5113701;28;19924;-71
2021/07/11 00:10:00;;;;;;;;;;;;;;;21.16;55.55;101495.19;5113298;28;19924;-71
2021/07/11 00:12:27;;;;;;;;;;;;;;;20.88;57.16;101487.06;5113809;28;19923;-71
2021/07/11 00:14:55;;;;;;;;;;;;;;;20.91;56.94;101479.81;5113789;28;19930;-71
2021/07/11 00:17:22;;;;;;;;;;;;;;;20.95;56.46;101478.56;5113561;28;19927;-71
2021/07/11 00:19:50;;;;;;;;;;;;;;;21.29;55.37;101477.25;5113724;28;19923;-71
2021/07/11 00:22:17;;;;;;;;;;;;;;;21.31;55.11;101482.44;5113349;28;19924;-71
2021/07/11 00:24:44;;;;;;;;;;;;;;;20.87;56.93;101471.31;5113321;28;19924;-71
2021/07/11 00:27:11;;;;;;;;;;;;;;;21.03;56.78;101476.91;5113278;28;19928;-71
2021/07/11 00:29:38;;;;;;;;;;;;;;;21.07;56.73;101467.75;5113243;28;19924;-71
2021/07/11 00:32:04;;;;;;;;;;;;;;;21.35;56.40;101478.53;5112941;28;20386;-71
2021/07/11 00:34:31;;;;;;;;;;;;;;;21.16;56.27;101479.31;5113389;28;19930;-71
2021/07/11 00:36:59;;;;;;;;;;;;;;;21.17;56.50;101486.31;5113106;28;19935;-71
2021/07/11 00:39:26;;;;;;;;;;;;;;;21.25;56.19;101481.16;5113326;28;19931;-71
2021/07/11 00:41:52;;;;;;;;;;;;;;;21.36;55.41;101474.91;5112962;28;19931;-71
2021/07/11 00:44:19;;;;;;;;;;;;;;;21.39;55.57;101472.00;5112810;28;20297;-71
2021/07/11 00:46:46;;;;;;;;;;;;;;;21.21;56.39;101477.09;5112981;28;19931;-71
2021/07/11 00:49:12;;;;;;;;;;;;;;;21.07;56.99;101477.50;5113062;28;19992;-71
2021/07/11 00:51:39;;;;;;;;;;;;;;;20.96;57.83;101475.81;5112877;28;19924;-71
2021/07/11 00:54:07;;;;;;;;;;;;;;;21.01;56.40;101478.03;5113034;28;19924;-71
2021/07/11 00:56:33;;;;;;;;;;;;;;;21.14;55.65;101473.31;5112646;28;19931;-71
2021/07/11 00:59:00;;;;;;;;;;;;;;;21.33;55.31;101475.19;5112654;28;19927;-71
2021/07/11 01:01:30;;;;;;;;;;;;;;;21.50;54.93;101473.69;5112710;28;19932;-71
2021/07/11 01:03:58;;;;;;;;;;;;;;;21.38;54.82;101477.44;5112577;28;19924;-71
2021/07/11 01:06:26;;;;;;;;;;;;;;;21.42;54.82;101477.03;5114480;28;19969;-71
2021/07/11 01:08:55;;;;;;;;;;;;;;;20.90;57.18;101483.44;5117366;28;19923;-71
2021/07/11 01:11:24;;;;;;;;;;;;;;;21.21;56.02;101486.84;5117011;28;20378;-71
2021/07/11 01:13:54;;;;;;;;;;;;;;;20.99;58.38;101480.81;5116822;28;20514;-72
2021/07/11 01:16:24;;;;;;;;;;;;;;;20.83;59.74;101481.34;5116727;28;19980;-71
2021/07/11 01:18:51;;;;;;;;;;;;;;;20.91;58.21;101469.22;5117207;28;19924;-71
2021/07/11 01:21:19;;;;;;;;;;;;;;;20.85;57.65;101470.59;5116868;28;19924;-71
2021/07/11 01:23:49;;;;;;;;;;;;;;;20.96;57.21;101472.31;5116623;28;19924;-71
2021/07/11 01:26:19;;;;;;;;;;;;;;;21.02;56.90;101467.31;5116812;28;19924;-71
2021/07/11 01:28:48;;;;;;;;;;;;;;;21.16;56.40;101465.25;5116857;28;19931;-71
2021/07/11 01:31:15;;;;;;;;;;;;;;;20.90;57.13;101465.75;5116374;28;20374;-71
2021/07/11 01:33:43;;;;;;;;;;;;;;;20.79;58.29;101461.41;5116818;28;19924;-71
2021/07/11 01:36:10;;;;;;;;;;;;;;;21.16;57.01;101454.69;5116187;28;19930;-71
2021/07/11 01:38:37;;;;;;;;;;;;;;;21.04;57.37;101456.59;5116665;28;20018;-71
2021/07/11 01:41:04;;;;;;;;;;;;;;;21.05;57.72;101450.34;5116696;28;19924;-71
2021/07/11 01:43:33;;;;;;;;;;;;;;;21.09;58.53;101454.38;5116660;28;19928;-71
2021/07/11 01:46:00;;;;;;;;;;;;;;;21.00;59.13;101452.56;5116019;28;19927;-71
2021/07/11 01:48:27;;;;;;;;;;;;;;;21.15;57.30;101445.09;5116169;28;20387;-71
2021/07/11 01:50:54;;;;;;;;;;;;;;;21.25;57.45;101451.22;5116574;28;19924;-71
2021/07/11 01:53:23;;;;;;;;;;;;;;;21.16;57.85;101449.38;5116518;28;19966;-70
2021/07/11 01:55:51;;;;;;;;;;;;;;;21.18;59.47;101444.81;5115896;28;19923;-70
2021/07/11 01:58:18;;;;;;;;;;;;;;;21.23;55.74;101447.88;5115779;28;19931;-71
2021/07/11 02:00:46;;;;;;;;;;;;;;;21.23;58.06;101453.16;5115979;28;19924;-71
2021/07/11 02:03:17;;;;;;;;;;;;;;;21.26;57.77;101447.59;5115986;28;19931;-71
2021/07/11 02:05:44;;;;;;;;;;;;;;;21.21;58.86;101440.06;5116179;28;19923;-71
2021/07/11 02:08:10;;;;;;;;;;;;;;;21.07;58.59;101429.88;5115721;28;19924;-71
2021/07/11 02:10:37;;;;;;;;;;;;;;;21.13;57.41;101428.50;5116162;28;19923;-71
2021/07/11 02:13:07;;;;;;;;;;;;;;;21.03;58.74;101418.72;5115578;28;19931;-71
2021/07/11 02:15:34;;;;;;;;;;;;;;;21.02;57.86;101417.06;5115881;28;19923;-71
2021/07/11 02:18:02;;;;;;;;;;;;;;;21.23;57.31;101416.94;5115148;28;19931;-71
2021/07/11 02:20:29;;;;;;;;;;;;;;;21.26;56.37;101411.38;5115680;28;19924;-72
2021/07/11 02:22:57;;;;;;;;;;;;;;;20.99;57.33;101411.19;5115565;28;19931;-71
2021/07/11 02:25:23;;;;;;;;;;;;;;;20.98;57.01;101410.34;5115857;28;19930;-70
2021/07/11 02:27:51;;;;;;;;;;;;;;;20.95;57.26;101410.63;5115415;28;19923;-71
2021/07/11 02:30:19;;;;;;;;;;;;;;;21.15;56.77;101415.97;5115520;28;19923;-71
2021/07/11 02:32:48;;;;;;;;;;;;;;;21.31;56.16;101416.25;5115422;28;20327;-70
2021/07/11 02:35:17;;;;;;;;;;;;;;;21.14;57.04;101416.94;5115428;28;19928;-72
2021/07/11 02:37:47;;;;;;;;;;;;;;;21.00;58.73;101410.22;5115364;28;19924;-71
2021/07/11 02:40:14;;;;;;;;;;;;;;;21.14;57.56;101417.75;5115629;28;19977;-71
2021/07/11 02:42:41;;;;;;;;;;;;;;;20.97;58.32;101411.34;5115234;28;19931;-71
2021/07/11 02:45:09;;;;;;;;;;;;;;;20.99;59.05;101413.84;5115255;28;19924;-71
2021/07/11 02:47:38;;;;;;;;;;;;;;;21.01;58.03;101415.38;5115309;28;19923;-71
2021/07/11 02:50:07;;;;;;;;;;;;;;;20.99;59.07;101413.84;5115094;28;19931;-71
2021/07/11 02:52:36;;;;;;;;;;;;;;;20.83;59.58;101404.63;5115360;28;19924;-71
2021/07/11 02:55:05;;;;;;;;;;;;;;;20.79;60.34;101413.81;5114557;28;19924;-71
2021/07/11 02:57:33;;;;;;;;;;;;;;;21.17;57.87;101408.72;5115108;28;19927;-71
2021/07/11 03:00:00;;;;;;;;;;;;;;;21.01;59.23;101417.19;5114972;28;19949;-72
2021/07/11 03:02:28;;;;;;;;;;;;;;;20.92;60.21;101410.09;5114700;28;19923;-71
2021/07/11 03:04:55;;;;;;;;;;;;;;;21.07;59.17;101409.56;5115116;28;19924;-71
2021/07/11 03:07:22;;;;;;;;;;;;;;;21.01;59.73;101412.72;5114741;28;19927;-71
2021/07/11 03:09:50;;;;;;;;;;;;;;;21.16;58.33;101401.75;5114987;28;19923;-71
2021/07/11 03:12:17;;;;;;;;;;;;;;;21.27;59.75;101401.63;5114556;28;19930;-71
2021/07/11 03:14:47;;;;;;;;;;;;;;;21.51;57.32;101388.84;5114579;28;19924;-71
2021/07/11 03:17:14;;;;;;;;;;;;;;;21.46;57.30;101395.53;5114264;28;19924;-72
2021/07/11 03:19:41;;;;;;;;;;;;;;;21.44;58.31;101393.03;5114492;28;19931;-71
2021/07/11 03:22:08;;;;;;;;;;;;;;;21.34;59.69;101389.50;5114472;28;19923;-71
2021/07/11 03:24:36;;;;;;;;;;;;;;;21.50;59.51;101391.63;5114617;28;19924;-71
2021/07/11 03:27:04;;;;;;;;;;;;;;;21.68;58.31;101389.97;5114404;28;19931;-71
2021/07/11 03:29:35;;;;;;;;;;;;;;;21.56;59.86;101388.44;5113664;28;19959;-71
2021/07/11 03:32:02;;;;;;;;;;;;;;;21.34;59.86;101381.56;5114304;28;19927;-71
2021/07/11 03:34:31;;;;;;;;;;;;;;;21.62;59.21;101377.25;5114097;28;19923;-71
2021/07/11 03:36:59;;;;;;;;;;;;;;;21.79;59.35;101375.72;5114160;28;19931;-72
2021/07/11 03:39:27;;;;;;;;;;;;;;;21.99;56.50;101379.16;5114465;28;19931;-71
2021/07/11 03:41:54;;;;;;;;;;;;;;;22.00;58.24;101370.22;5114112;28;19934;-71
2021/07/11 03:44:24;;;;;;;;;;;;;;;22.11;57.63;101367.38;5114248;28;19931;-71
2021/07/11 03:46:52;;;;;;;;;;;;;;;22.33;57.49;101365.41;5114182;28;19924;-71
2021/07/11 03:49:19;;;;;;;;;;;;;;;22.53;56.89;101360.81;5113682;28;19930;-71
2021/07/11 03:51:47;;;;;;;;;;;;;;;22.49;56.70;101362.94;5113826;28;19931;-71
2021/07/11 03:54:15;;;;;;;;;;;;;;;22.47;57.61;101364.91;5113432;28;19923;-71
2021/07/11 03:56:44;;;;;;;;;;;;;;;22.48;56.69;101368.38;5113728;28;19932;-71
2021/07/11 03:59:11;;;;;;;;;;;;;;;22.48;57.27;101365.72;5113377;28;20297;-71
2021/07/11 04:01:40;;;;;;;;;;;;;;;22.41;59.06;101365.50;5113892;28;19923;-72
2021/07/11 04:04:09;;;;;;;;;;;;;;;22.29;58.39;101354.25;5113234;28;20382;-71
2021/07/11 04:06:36;;;;;;;;;;;;;;;22.26;60.25;101351.88;5113560;28;19924;-71
2021/07/11 04:09:05;;;;;;;;;;;;;;;22.43;58.41;101350.28;5113617;28;19931;-71
2021/07/11 04:11:34;;;;;;;;;;;;;;;22.14;59.65;101348.56;5113768;28;20298;-71
2021/07/11 04:14:01;;;;;;;;;;;;;;;22.40;58.84;101355.84;5113121;28;20370;-70
2021/07/11 04:16:30;;;;;;;;;;;;;;;22.42;58.21;101353.91;5113350;28;20385;-71
2021/07/11 04:18:59;;;;;;;;;;;;;;;22.36;57.95;101350.03;5113065;28;20279;-70
2021/07/11 04:21:27;;;;;;;;;;;;;;;22.34;59.87;101351.97;5113299;28;19924;-71
2021/07/11 04:23:55;;;;;;;;;;;;;;;22.45;58.89;101350.13;5113608;28;20275;-70
2021/07/11 04:26:23;;;;;;;;;;;;;;;22.38;59.09;101353.38;5113539;28;19931;-71
2021/07/11 04:28:50;;;;;;;;;;;;;;;22.67;58.43;101349.72;5113414;28;19924;-71
2021/07/11 04:31:18;;;;;;;;;;;;;;;22.80;58.74;101346.72;5112980;28;19924;-71
2021/07/11 04:33:46;;;;;;;;;;;;;;;22.91;57.71;101346.50;5113440;28;19923;-71
2021/07/11 04:36:14;;;;;;;;;;;;;;;23.00;57.21;101347.44;5113176;28;19969;-71
2021/07/11 04:38:41;;;;;;;;;;;;;;;22.98;58.07;101342.28;5112940;28;20415;-71
2021/07/11 04:41:10;;;;;;;;;;;;;;;23.13;58.22;101339.94;5112533;28;20392;-71
2021/07/11 04:43:37;;;;;;;;;;;;;;;23.15;58.73;101345.94;5113365;28;20031;-71
2021/07/11 04:46:03;;;;;;;;;;;;;;;23.26;59.79;101348.34;5112769;28;19928;-71
2021/07/11 04:48:30;;;;;;;;;;;;;;;23.15;60.11;101340.63;5113177;28;19947;-72
2021/07/11 04:50:57;;;;;;;;;;;;;;;23.18;59.32;101350.09;5113034;28;19930;-72
2021/07/11 04:53:25;;;;;;;;;;;;;;;23.57;56.53;101341.78;5112875;28;19928;-71
2021/07/11 04:55:54;;;;;;;;;;;;;;;23.67;58.01;101342.53;5112747;28;19924;-71
2021/07/11 04:58:21;;;;;;;;;;;;;;;23.82;56.56;101348.13;5113123;28;19931;-71
2021/07/11 05:00:47;;;;;;;;;;;;;;;24.04;56.92;101342.25;5112852;28;20085;-71
2021/07/11 05:03:14;;;;;;;;;;;;;;;24.10;57.49;101339.00;5112799;28;19950;-71
2021/07/11 05:05:40;;;;;;;;;;;;;;;24.17;54.44;101333.84;5113083;28;19931;-71
2021/07/11 05:08:07;;;;;;;;;;;;;;;24.29;56.01;101324.59;5112840;28;19924;-71
2021/07/11 05:10:35;;;;;;;;;;;;;;;24.47;53.94;101321.88;5112771;28;20397;-71
2021/07/11 05:13:01;;;;;;;;;;;;;;;24.63;53.46;101318.41;5112556;28;19924;-71
2021/07/11 05:15:29;;;;;;;;;;;;;;;24.82;54.94;101319.16;5112979;28;19924;-71
2021/07/11 05:17:56;;;;;;;;;;;;;;;24.82;53.84;101316.47;5112602;28;19981;-71
2021/07/11 05:20:22;;;;;;;;;;;;;;;24.95;52.39;101309.66;5112734;28;19924;-71
2021/07/11 05:22:49;;;;;;;;;;;;;;;25.02;52.90;101314.31;5112686;28;19924;-71
2021/07/11 05:25:15;;;;;;;;;;;;;;;25.06;54.18;101310.34;5112344;28;20302;-71
2021/07/11 05:27:43;;;;;;;;;;;;;;;25.20;52.88;101307.88;5112958;28;19924;-71
2021/07/11 05:30:10;;;;;;;;;;;;;;;25.24;51.12;101312.88;5112674;28;19924;-71
2021/07/11 05:32:37;;;;;;;;;;;;;;;25.06;53.17;101316.50;5112848;28;19931;-71
2021/07/11 05:35:04;;;;;;;;;;;;;;;25.16;52.11;101311.03;5112204;28;19928;-71
2021/07/11 05:37:31;;;;;;;;;;;;;;;25.25;52.03;101314.53;5112772;28;19947;-70
2021/07/11 05:39:58;;;;;;;;;;;;;;;25.38;52.59;101315.69;5112302;28;19931;-71
2021/07/11 05:42:24;;;;;;;;;;;;;;;25.49;52.39;101311.03;5112435;28;19924;-71
2021/07/11 05:44:52;;;;;;;;;;;;;;;25.52;50.65;101308.03;5112676;28;19931;-71
2021/07/11 05:47:19;;;;;;;;;;;;;;;25.61;51.82;101310.50;5112552;28;19924;-71
2021/07/11 05:49:46;;;;;;;;;;;;;;;25.64;50.22;101306.66;5112445;28;19924;-71
2021/07/11 05:52:12;;;;;;;;;;;;;;;25.53;49.81;101310.50;5112993;28;20401;-70
2021/07/11 05:54:39;;;;;;;;;;;;;;;25.54;50.03;101317.50;5116182;28;19931;-70
2021/07/11 05:57:05;;;;;;;;;;;;;;;25.67;49.12;101314.31;5116295;28;19947;-71
2021/07/11 05:59:32;;;;;;;;;;;;;;;25.66;48.98;101304.66;5115985;28;19924;-71
2021/07/11 06:02:00;;;;;;;;;;;;;;;25.84;50.07;101301.75;5115718;28;20420;-70
2021/07/11 06:04:26;;;;;;;;;;;;;;;26.14;50.00;101297.53;5115919;28;20447;-71
2021/07/11 06:06:53;;;;;;;;;;;;;;;25.97;51.53;101293.25;5116215;28;19924;-71
2021/07/11 06:09:20;;;;;;;;;;;;;;;26.09;51.70;101288.41;5115765;28;20404;-71
2021/07/11 06:11:46;;;;;;;;;;;;;;;26.10;50.86;101285.56;5116196;28;19923;-71
2021/07/11 06:14:14;;;;;;;;;;;;;;;26.45;50.46;101288.72;5115801;28;19931;-71
2021/07/11 06:16:40;;;;;;;;;;;;;;;26.53;48.34;101287.84;5115735;28;20442;-71
2021/07/11 06:19:08;;;;;;;;;;;;;;;26.63;48.50;101283.94;5115691;28;19924;-71
2021/07/11 06:21:35;;;;;;;;;;;;;;;26.52;50.01;101284.38;5115486;28;19928;-71
2021/07/11 06:24:02;;;;;;;;;;;;;;;26.66;48.22;101290.78;5115674;28;19947;-71
2021/07/11 06:26:28;;;;;;;;;;;;;;;26.60;47.18;101286.16;5115867;28;19924;-71
2021/07/11 06:28:55;;;;;;;;;;;;;;;26.71;47.01;101283.88;5115350;28;19928;-71
2021/07/11 06:31:21;;;;;;;;;;;;;;;26.87;47.34;101288.31;5115402;28;20325;-72
2021/07/11 06:33:48;;;;;;;;;;;;;;;26.71;46.80;101288.41;5115585;28;19924;-71
2021/07/11 06:36:16;;;;;;;;;;;;;;;26.76;49.47;101286.03;5115410;28;19932;-71
2021/07/11 06:38:43;;;;;;;;;;;;;;;26.91;49.43;101294.94;5115241;28;20301;-71
2021/07/11 06:41:09;;;;;;;;;;;;;;;26.92;46.79;101298.41;5115372;28;19930;-71
2021/07/11 06:43:36;;;;;;;;;;;;;;;27.01;48.23;101289.34;5115152;28;19924;-71
2021/07/11 06:46:02;;;;;;;;;;;;;;;27.14;47.28;101286.06;5115150;28;20301;-72
2021/07/11 06:48:31;;;;;;;;;;;;;;;27.11;47.69;101284.59;5115451;28;19931;-71
2021/07/11 06:50:57;;;;;;;;;;;;;;;27.18;47.00;101283.88;5114887;28;19945;-71
2021/07/11 06:53:26;;;;;;;;;;;;;;;27.10;49.27;101287.44;5115377;28;19923;-71
2021/07/11 06:55:53;;;;;;;;;;;;;;;27.33;48.41;101290.09;5114720;28;19924;-71
2021/07/11 06:58:20;;;;;;;;;;;;;;;27.79;46.57;101284.59;5114805;28;19924;-71
2021/07/11 07:00:46;;;;;;;;;;;;;;;28.19;45.75;101272.59;5114785;28;19923;-70
2021/07/11 07:03:13;;;;;;;;;;;;;;;28.47;45.58;101271.91;5114590;28;20297;-71
2021/07/11 07:05:39;;;;;;;;;;;;;;;28.76;43.00;101270.97;5114869;28;20006;-71
2021/07/11 07:08:06;;;;;;;;;;;;;;;28.78;41.22;101265.44;5114584;28;19923;-71
2021/07/11 07:10:34;;;;;;;;;;;;;;;28.96;41.58;101262.28;5115025;28;19992;-71
2021/07/11 07:13:01;;;;;;;;;;;;;;;29.28;40.90;101267.09;5114439;28;19924;-71
2021/07/11 07:15:28;;;;;;;;;;;;;;;29.12;40.89;101261.22;5114640;28;19931;-71
2021/07/11 07:17:55;;;;;;;;;;;;;;;29.58;41.90;101264.19;5114803;28;19924;-71
2021/07/11 07:20:21;;;;;;;;;;;;;;;29.73;41.60;101262.25;5114228;28;20294;-71
2021/07/11 07:22:48;;;;;;;;;;;;;;;29.85;40.73;101259.84;5114750;28;19924;-71
2021/07/11 07:25:16;;;;;;;;;;;;;;;30.01;41.44;101261.34;5114508;28;20001;-72
2021/07/11 07:27:45;;;;;;;;;;;;;;;30.48;40.36;101267.69;5114306;28;19924;-71
2021/07/11 07:30:15;;;;;;;;;;;;;;;31.08;39.70;101269.63;5114377;28;19924;-71
2021/07/11 07:32:42;;;;;;;;;;;;;;;30.79;40.21;101258.25;5114238;28;19973;-72
2021/07/11 07:35:09;;;;;;;;;;;;;;;30.71;38.84;101248.53;5114031;28;19923;-71
2021/07/11 07:37:36;;;;;;;;;;;;;;;31.41;39.26;101248.94;5114121;28;20378;-71
2021/07/11 07:40:04;;;;;;;;;;;;;;;32.16;38.59;101253.03;5114080;28;19923;-71
2021/07/11 07:42:31;;;;;;;;;;;;;;;32.31;37.39;101240.94;5114345;28;19927;-71
2021/07/11 07:44:59;;;;;;;;;;;;;;;32.53;37.25;101240.63;5113842;28;19943;-71
2021/07/11 07:47:26;;;;;;;;;;;;;;;31.99;37.49;101248.16;5114166;28;19931;-71
2021/07/11 07:49:52;;;;;;;;;;;;;;;32.26;36.80;101246.13;5113981;28;20382;-71
2021/07/11 07:52:19;;;;;;;;;;;;;;;32.90;36.41;101249.63;5113576;28;20386;-71
2021/07/11 07:54:45;;;;;;;;;;;;;;;33.08;37.02;101245.38;5113957;28;19939;-71
2021/07/11 07:57:12;;;;;;;;;;;;;;;33.29;36.44;101252.22;5113598;28;19924;-71
2021/07/11 07:59:38;;;;;;;;;;;;;;;33.40;37.30;101246.09;5113583;28;20396;-71
2021/07/11 08:02:06;;;;;;;;;;;;;;;34.15;36.95;101245.84;5113397;28;20290;-71
2021/07/11 08:04:35;;;;;;;;;;;;;;;34.32;36.86;101248.72;5112934;28;21431;-71
2021/07/11 08:07:02;;;;;;;;;;;;;;;33.76;37.21;101244.47;5113569;28;19946;-71
2021/07/11 08:09:28;;;;;;;;;;;;;;;33.45;37.68;101240.88;5113560;28;19931;-71
2021/07/11 08:11:55;;;;;;;;;;;;;;;33.94;37.31;101244.44;5113525;28;19928;-71
2021/07/11 08:14:21;;;;;;;;;;;;;;;34.07;36.25;101237.25;5113266;28;20287;-71
2021/07/11 08:16:48;;;;;;;;;;;;;;;34.21;36.04;101241.41;5113473;28;19935;-71
2021/07/11 08:19:16;;;;;;;;;;;;;;;33.98;38.11;101234.81;5113342;28;19923;-71
2021/07/11 08:21:42;;;;;;;;;;;;;;;31.95;41.12;101238.03;5113673;28;19924;-71
2021/07/11 08:24:09;;;;;;;;;;;;;;;33.34;38.59;101233.50;5113061;28;19930;-71
2021/07/11 08:26:36;;;;;;;;;;;;;;;34.10;38.01;101231.41;5113181;28;19931;-71
2021/07/11 08:29:03;;;;;;;;;;;;;;;35.11;36.45;101222.31;5113639;28;19946;-72
2021/07/11 08:31:29;;;;;;;;;;;;;;;34.79;37.61;101229.13;5113165;28;19923;-71
2021/07/11 08:33:56;;;;;;;;;;;;;;;35.27;34.76;101228.91;5113202;28;19924;-71
2021/07/11 08:36:24;;;;;;;;;;;;;;;35.35;35.39;101222.31;5113455;28;19924;-71
2021/07/11 08:38:50;;;;;;;;;;;;;;;36.42;33.95;101223.56;5113243;28;19924;-71
2021/07/11 08:41:17;;;;;;;;;;;;;;;35.38;35.97;101226.41;5113196;28;19924;-71
2021/07/11 08:43:46;;;;;;;;;;;;;;;34.23;37.31;101225.81;5113230;28;19931;-71
2021/07/11 08:46:12;;;;;;;;;;;;;;;33.69;37.25;101217.56;5113112;28;19945;-71
2021/07/11 08:48:40;;;;;;;;;;;;;;;34.90;37.12;101225.59;5113291;28;19924;-71
2021/07/11 08:51:06;;;;;;;;;;;;;;;34.98;36.95;101225.22;5112970;28;19924;-71
2021/07/11 08:53:34;;;;;;;;;;;;;;;35.01;36.01;101218.53;5112988;28;19923;-72
2021/07/11 08:56:02;;;;;;;;;;;;;;;35.11;35.48;101222.31;5112563;28;19923;-70
2021/07/11 08:58:29;;;;;;;;;;;;;;;35.61;34.33;101230.94;5113227;28;19924;-71
2021/07/11 09:00:56;;;;;;;;;;;;;;;36.73;32.37;101218.66;5112371;28;19927;-71
2021/07/11 09:03:23;;;;;;;;;;;;;;;35.65;34.46;101226.72;5113133;28;19924;-71
2021/07/11 09:05:53;;;;;;;;;;;;;;;35.96;33.87;101218.13;5113066;28;20293;-71
2021/07/11 09:08:23;;;;;;;;;;;;;;;35.73;35.14;101216.31;5112614;28;20416;-71
2021/07/11 09:10:52;;;;;;;;;;;;;;;33.60;38.00;101206.28;5112647;28;19930;-71
2021/07/11 09:13:19;;;;;;;;;;;;;;;32.80;39.99;101211.59;5112514;28;19923;-71
2021/07/11 09:15:48;;;;;;;;;;;;;;;32.04;41.59;101205.28;5113092;28;19928;-71
2021/07/11 09:18:15;;;;;;;;;;;;;;;32.22;42.76;101204.56;5112714;28;19969;-72
2021/07/11 09:20:55;;;;;;;;;;;;;;;31.59;43.30;101202.56;5112849;28;19924;-71
2021/07/11 09:23:23;;;;;;;;;;;;;;;31.12;45.55;101199.16;5112995;28;19931;-71
2021/07/11 09:25:57;;;;;;;;;;;;;;;30.52;46.24;101188.41;5112607;28;19955;-71
2021/07/11 09:28:24;;;;;;;;;;;;;;;30.59;47.01;101188.41;5115805;28;19924;-71
2021/07/11 09:31:00;;;;;;;;;;;;;;;30.61;46.77;101191.72;5116610;28;19924;-71
2021/07/11 09:33:27;;;;;;;;;;;;;;;31.10;46.78;101195.00;5116981;28;19928;-71
2021/07/11 09:36:03;;;;;;;;;;;;;;;31.08;47.12;101189.03;5116895;28;19928;-71
2021/07/11 09:38:30;;;;;;;;;;;;;;;31.60;45.55;101192.63;5116621;28;19931;-71
2021/07/11 09:40:58;;;;;;;;;;;;;;;31.95;45.28;101184.22;5116500;28;20297;-71
2021/07/11 09:43:24;;;;;;;;;;;;;;;32.29;43.16;101178.44;5116572;28;19924;-72
2021/07/11 09:45:51;;;;;;;;;;;;;;;31.64;44.50;101181.22;5116722;28;19924;-71
2021/07/11 09:48:18;;;;;;;;;;;;;;;31.24;45.08;101178.66;5116402;28;19924;-71
2021/07/11 09:50:44;;;;;;;;;;;;;;;30.97;46.08;101180.56;5116304;28;19924;-71
2021/07/11 09:53:13;;;;;;;;;;;;;;;30.74;47.00;101170.22;5115887;28;20369;-71
2021/07/11 09:55:39;;;;;;;;;;;;;;;30.64;48.19;101172.50;5116067;28;19924;-71
2021/07/11 09:58:11;;;;;;;;;;;;;;;30.46;48.11;101180.34;5115782;28;19924;-71
2021/07/11 10:00:38;;;;;;;;;;;;;;;30.26;48.43;101175.78;5115993;28;20547;-71
2021/07/11 10:03:06;;;;;;;;;;;;;;;30.49;48.18;101172.69;5115788;28;19931;-71
2021/07/11 10:05:33;;;;;;;;;;;;;;;30.44;47.86;101169.81;5115844;28;19924;-71
2021/07/11 10:08:00;;;;;;;;;;;;;;;30.48;47.43;101172.91;5115704;28;19923;-71
2021/07/11 10:10:28;;;;;;;;;;;;;;;30.67;47.03;101168.56;5116214;28;19928;-72
2021/07/11 10:12:55;;;;;;;;;;;;;;;30.85;45.97;101173.34;5115901;28;19976;-72
2021/07/11 10:15:25;;;;;;;;;;;;;;;31.26;45.40;101170.38;5115675;28;19924;-72
2021/07/11 10:17:55;;;;;;;;;;;;;;;31.20;45.51;101173.91;5115690;28;19935;-72
2021/07/11 10:20:22;;;;;;;;;;;;;;;31.10;44.04;101168.16;5115882;28;19923;-72
2021/07/11 10:22:50;;;;;;;;;;;;;;;31.18;44.00;101170.59;5115627;28;19924;-71
2021/07/11 10:25:18;;;;;;;;;;;;;;;32.90;42.48;101159.91;5115470;28;19988;-72
2021/07/11 10:27:45;;;;;;;;;;;;;;;34.85;36.02;101163.31;5115919;28;19947;-72
2021/07/11 10:30:12;;;;;;;;;;;;;;;36.56;33.17;101164.50;5115199;28;19931;-72
2021/07/11 10:32:40;;;;;;;;;;;;;;;37.24;30.09;101157.03;5115764;28;19938;-72
2021/07/11 10:35:09;;;;;;;;;;;;;;;37.91;30.11;101148.53;5115016;28;19927;-72
2021/07/11 10:37:47;;;;;;;;;;;;;;;38.09;29.97;101143.84;5115375;28;19924;-72
2021/07/11 10:40:15;;;;;;;;;;;;;;;36.69;30.03;101141.63;5115332;28;19930;-72
2021/07/11 10:42:41;;;;;;;;;;;;;;;36.41;31.40;101133.34;5115525;28;20332;-72
2021/07/11 10:45:09;;;;;;;;;;;;;;;37.53;30.84;101137.84;5115255;28;19970;-72
2021/07/11 10:47:36;;;;;;;;;;;;;;;37.48;32.73;101138.56;5115467;28;19924;-72
2021/07/11 10:50:08;;;;;;;;;;;;;;;36.76;35.19;101139.56;5115164;28;19924;-72
2021/07/11 10:52:37;;;;;;;;;;;;;;;38.07;32.90;101146.81;5115135;28;19938;-72
2021/07/11 10:55:06;;;;;;;;;;;;;;;37.99;33.12;101135.59;5114578;28;19976;-72
2021/07/11 10:57:34;;;;;;;;;;;;;;;40.16;28.99;101148.88;5115042;28;19931;-72
2021/07/11 11:00:08;;;;;;;;;;;;;;;40.64;29.69;101130.28;5114847;28;19928;-72
2021/07/11 11:02:35;;;;;;;;;;;;;;;40.55;28.22;101122.97;5115136;28;19923;-72
2021/07/11 11:05:03;;;;;;;;;;;;;;;40.97;28.89;101122.56;5114610;28;19931;-72
2021/07/11 11:07:40;;;;;;;;;;;;;;;39.51;29.42;101128.63;5114782;28;19938;-72
2021/07/11 11:10:17;;;;;;;;;;;;;;;40.80;29.17;101131.09;5114807;28;19924;-72
2021/07/11 11:12:44;;;;;;;;;;;;;;;39.23;30.38;101124.44;5114634;28;19924;-72
2021/07/11 11:15:13;;;;;;;;;;;;;;;38.55;31.42;101119.75;5114730;28;19924;-72
2021/07/11 11:17:40;;;;;;;;;;;;;;;36.22;35.09;101115.69;5114913;28;19923;-72
2021/07/11 11:20:08;;;;;;;;;;;;;;;35.49;36.74;101107.34;5114464;28;19924;-72
2021/07/11 11:22:35;;;;;;;;;;;;;;;35.40;36.18;101113.38;5114513;28;19924;-72
2021/07/11 11:25:04;;;;;;;;;;;;;;;33.87;39.71;101103.38;5114436;28;19954;-72
2021/07/11 11:27:34;;;;;;;;;;;;;;;33.78;41.09;101104.75;5114688;28;19924;-72
2021/07/11 11:30:10;;;;;;;;;;;;;;;34.24;39.96;101105.94;5114060;28;20269;-72
2021/07/11 11:32:37;;;;;;;;;;;;;;;33.90;40.60;101094.00;5114495;28;19924;-71
2021/07/11 11:35:04;;;;;;;;;;;;;;;32.75;43.01;101096.44;5114209;28;19924;-72
2021/07/11 11:37:32;;;;;;;;;;;;;;;32.83;41.76;101095.28;5114496;28;19931;-72
2021/07/11 11:40:03;;;;;;;;;;;;;;;32.69;42.38;101097.31;5113884;28;19975;-72
2021/07/11 11:42:30;;;;;;;;;;;;;;;32.29;44.22;101108.44;5114101;28;19924;-72
2021/07/11 11:45:04;;;;;;;;;;;;;;;32.13;43.75;101125.09;5113769;28;20397;-72
2021/07/11 11:47:30;;;;;;;;;;;;;;;31.67;44.54;101131.56;5114229;28;19946;-71
2021/07/11 11:49:57;;;;;;;;;;;;;;;30.91;46.63;101138.44;5112974;28;19930;-71
2021/07/11 11:52:23;;;;;;;;;;;;;;;29.83;49.23;101126.97;5113884;28;20366;-71
2021/07/11 11:54:50;;;;;;;;;;;;;;;30.04;47.98;101134.03;5113842;28;19924;-71
2021/07/11 11:57:30;;;;;;;;;;;;;;;29.40;50.29;101116.47;5113867;28;19924;-71
2021/07/11 11:59:57;;;;;;;;;;;;;;;29.27;50.31;101099.31;5113770;28;19931;-71
2021/07/11 12:02:24;;;;;;;;;;;;;;;29.87;50.16;101091.47;5113999;28;19941;-71
2021/07/11 12:04:50;;;;;;;;;;;;;;;30.03;48.23;101095.66;5113983;28;19931;-71
2021/07/11 12:07:17;;;;;;;;;;;;;;;29.54;48.77;101096.72;5113540;28;19931;-71
2021/07/11 12:09:44;;;;;;;;;;;;;;;28.68;51.04;101104.28;5113852;28;19924;-72
2021/07/11 12:12:11;;;;;;;;;;;;;;;29.07;48.71;101107.25;5113804;28;19923;-71
2021/07/11 12:14:41;;;;;;;;;;;;;;;28.27;52.46;101105.78;5113468;28;19928;-71
2021/07/11 12:17:09;;;;;;;;;;;;;;;28.61;49.40;101113.09;5113147;28;19924;-72
2021/07/11 12:19:42;;;;;;;;;;;;;;;28.48;49.99;101112.16;5113657;28;19928;-71
2021/07/11 12:22:14;;;;;;;;;;;;;;;28.38;50.42;101128.53;5113163;28;19927;-71
2021/07/11 12:24:41;;;;;;;;;;;;;;;28.25;51.63;101180.06;5113356;28;19931;-71
2021/07/11 12:27:07;;;;;;;;;;;;;;;27.16;57.51;101198.59;5113255;28;19924;-71
2021/07/11 12:29:35;;;;;;;;;;;;;;;26.53;62.81;101181.13;5113245;28;19924;-71
2021/07/11 12:32:04;;;;;;;;;;;;;;;26.38;64.58;101173.03;5112856;28;20339;-72
2021/07/11 12:34:30;;;;;;;;;;;;;;;25.56;70.38;101158.31;5113458;28;19931;-71
2021/07/11 12:36:59;;;;;;;;;;;;;;;26.08;70.33;101153.44;5113301;28;19931;-71